Time;durP1;ratioP1;P1;durP2;ratioP2;P2;SDS_P1;SDS_P2;PMS_P1;PMS_P2;Temp;Humidity;BMP_temperature;BMP_pressure;BME280_temperature;BME280_humidity;BME280_pressure;Samples;Min_cycle;Max_cycle;Signal;HPM_P1;HPM_P2
2023/03/03 00:00:50;;;;;;;51.70;29.45;;;2.90;99.90;;;;;;5082035;28;20048;-77
2023/03/03 00:03:19;;;;;;;51.42;29.42;;;2.90;99.90;;;;;;5088675;28;20048;-77
2023/03/03 00:05:45;;;;;;;50.53;29.23;;;2.90;99.90;;;;;;5086504;28;20454;-78
2023/03/03 00:08:10;;;;;;;46.55;28.95;;;2.90;99.90;;;;;;5086245;28;20119;-78
2023/03/03 00:10:37;;;;;;;47.72;29.27;;;2.80;99.90;;;;;;5084259;28;20046;-78
2023/03/03 00:13:12;;;;;;;47.63;28.20;;;2.90;99.90;;;;;;5086060;28;20082;-78
2023/03/03 00:15:37;;;;;;;47.85;29.05;;;2.80;99.90;;;;;;5086688;28;20036;-78
2023/03/03 00:18:19;;;;;;;44.83;28.08;;;2.80;99.90;;;;;;5079239;28;20059;-77
2023/03/03 00:20:59;;;;;;;44.60;26.50;;;2.80;99.90;;;;;;5083891;28;20064;-78
2023/03/03 00:23:31;;;;;;;40.03;26.10;;;2.80;99.90;;;;;;5085089;28;20051;-78
2023/03/03 00:25:58;;;;;;;39.35;25.42;;;2.80;99.90;;;;;;5088621;28;20169;-78
2023/03/03 00:28:26;;;;;;;38.80;24.83;;;2.70;99.90;;;;;;5082933;28;20050;-78
2023/03/03 00:30:54;;;;;;;38.80;24.80;;;2.70;99.90;;;;;;5090782;28;20051;-78
2023/03/03 00:33:32;;;;;;;40.83;24.58;;;2.70;99.90;;;;;;5084413;28;20048;-78
2023/03/03 00:36:27;;;;;;;38.40;24.30;;;2.70;99.90;;;;;;5086542;28;20050;-77
2023/03/03 00:38:55;;;;;;;37.03;25.00;;;2.70;99.90;;;;;;5082601;28;20143;-78
2023/03/03 00:41:26;;;;;;;40.42;25.25;;;2.70;99.90;;;;;;5087138;28;20481;-78
2023/03/03 00:43:52;;;;;;;35.75;23.65;;;2.70;99.90;;;;;;5081137;28;20036;-78
2023/03/03 00:46:21;;;;;;;40.47;26.05;;;2.70;99.90;;;;;;5078424;28;20048;-78
2023/03/03 00:48:47;;;;;;;41.30;25.58;;;2.70;99.90;;;;;;5082651;28;20047;-78
2023/03/03 00:51:25;;;;;;;40.75;25.10;;;2.70;99.90;;;;;;5087033;28;20050;-77
2023/03/03 00:53:51;;;;;;;37.55;25.02;;;2.70;99.90;;;;;;5089747;28;20540;-78
2023/03/03 00:56:16;;;;;;;37.83;25.17;;;2.70;99.90;;;;;;5088265;28;20119;-78
2023/03/03 00:58:44;;;;;;;39.05;26.35;;;2.70;99.90;;;;;;5089927;28;20072;-78
2023/03/03 01:01:10;;;;;;;37.55;25.15;;;2.70;99.90;;;;;;5082928;28;20079;-78
2023/03/03 01:03:36;;;;;;;38.13;24.65;;;2.70;99.90;;;;;;5087498;28;20556;-77
2023/03/03 01:06:01;;;;;;;35.97;24.42;;;2.70;99.90;;;;;;5085942;28;20044;-78
2023/03/03 01:08:27;;;;;;;38.50;25.45;;;2.70;99.90;;;;;;5089710;28;20089;-78
2023/03/03 01:11:18;;;;;;;39.95;25.88;;;2.70;99.90;;;;;;5085184;28;20037;-77
2023/03/03 01:13:47;;;;;;;42.67;26.85;;;2.60;99.90;;;;;;5080464;28;20074;-77
2023/03/03 01:16:12;;;;;;;37.92;25.90;;;2.60;99.90;;;;;;5082427;28;20052;-78
2023/03/03 01:18:40;;;;;;;40.53;25.02;;;2.60;99.90;;;;;;5088808;28;20415;-78
2023/03/03 01:21:06;;;;;;;40.47;26.63;;;2.50;99.90;;;;;;5071542;28;20067;-78
2023/03/03 01:23:33;;;;;;;41.53;26.27;;;2.50;99.90;;;;;;5081755;28;20051;-78
2023/03/03 01:25:58;;;;;;;40.83;25.80;;;2.50;99.90;;;;;;5086260;28;20040;-78
2023/03/03 01:28:24;;;;;;;42.38;25.42;;;2.50;99.90;;;;;;5087214;28;20036;-78
2023/03/03 01:30:49;;;;;;;42.17;24.27;;;2.50;99.90;;;;;;5087709;28;20047;-78
2023/03/03 01:33:15;;;;;;;41.88;25.65;;;2.40;99.90;;;;;;5081533;28;20036;-76
2023/03/03 01:35:46;;;;;;;43.17;25.95;;;2.50;99.90;;;;;;5075191;28;20518;-80
2023/03/03 01:38:12;;;;;;;39.83;23.98;;;2.40;99.90;;;;;;5081044;28;20173;-79
2023/03/03 01:40:38;;;;;;;40.22;24.50;;;2.40;99.90;;;;;;5084010;28;20055;-80
2023/03/03 01:43:04;;;;;;;37.28;23.48;;;2.50;99.90;;;;;;5086709;28;20047;-79
2023/03/03 01:45:41;;;;;;;40.55;24.25;;;2.50;99.90;;;;;;5081126;28;20040;-80
2023/03/03 01:48:35;;;;;;;44.05;26.00;;;2.50;99.90;;;;;;5081730;28;20059;-79
2023/03/03 01:51:08;;;;;;;43.80;25.77;;;2.50;99.90;;;;;;5075524;28;20063;-80
2023/03/03 01:53:41;;;;;;;39.67;25.48;;;2.50;99.90;;;;;;5083642;28;20055;-80
2023/03/03 01:56:08;;;;;;;46.40;27.15;;;2.50;99.90;;;;;;5096288;28;20044;-80
2023/03/03 01:58:38;;;;;;;45.20;28.60;;;2.50;99.90;;;;;;5087121;28;20047;-80
2023/03/03 02:01:08;;;;;;;50.92;29.63;;;2.50;99.90;;;;;;5083544;28;20532;-79
2023/03/03 02:03:34;;;;;;;46.50;28.95;;;2.60;99.90;;;;;;5082136;28;20040;-79
2023/03/03 02:06:06;;;;;;;46.13;29.90;;;2.50;99.90;;;;;;5082544;28;20075;-79
2023/03/03 02:09:00;;;;;;;48.42;27.67;;;2.50;99.90;;;;;;5082630;28;20047;-79
2023/03/03 02:11:28;;;;;;;49.65;28.20;;;2.50;99.90;;;;;;5080656;28;20056;-79
2023/03/03 02:13:54;;;;;;;47.05;28.23;;;2.50;99.90;;;;;;5093117;28;20403;-79
2023/03/03 02:16:19;;;;;;;47.42;27.42;;;2.40;99.90;;;;;;5083454;28;20038;-79
2023/03/03 02:18:45;;;;;;;48.80;28.25;;;2.50;99.90;;;;;;5085225;28;20113;-79
2023/03/03 02:21:11;;;;;;;47.05;27.58;;;2.50;99.90;;;;;;5094729;28;20036;-79
2023/03/03 02:24:02;;;;;;;46.75;26.83;;;2.40;99.90;;;;;;5091101;28;20044;-79
2023/03/03 02:26:32;;;;;;;50.97;27.08;;;2.40;99.90;;;;;;5088453;28;20529;-79
2023/03/03 02:28:59;;;;;;;49.63;27.55;;;2.40;99.90;;;;;;5089264;28;20077;-79
2023/03/03 02:31:28;;;;;;;48.25;27.38;;;2.40;99.90;;;;;;5085428;28;20044;-79
2023/03/03 02:33:54;;;;;;;51.90;27.15;;;2.40;99.90;;;;;;5082528;28;20048;-79
2023/03/03 02:36:26;;;;;;;46.27;25.93;;;2.40;99.90;;;;;;5086869;28;20173;-79
2023/03/03 02:39:16;;;;;;;48.58;27.27;;;2.40;99.90;;;;;;5086628;28;20308;-79
2023/03/03 02:41:59;;;;;;;48.55;26.48;;;2.40;99.90;;;;;;5083889;28;20045;-79
2023/03/03 02:44:27;;;;;;;45.13;25.55;;;2.40;99.90;;;;;;5083805;28;20131;-79
2023/03/03 02:46:54;;;;;;;52.55;26.33;;;2.40;99.90;;;;;;5087549;28;20104;-80
2023/03/03 02:49:23;;;;;;;47.35;26.25;;;2.40;99.90;;;;;;5087857;28;20055;-80
2023/03/03 02:51:49;;;;;;;51.35;26.00;;;2.40;99.90;;;;;;5089561;28;20036;-80
2023/03/03 02:54:17;;;;;;;49.28;25.90;;;2.40;99.90;;;;;;5089471;28;20127;-80
2023/03/03 02:56:43;;;;;;;48.55;25.45;;;2.40;99.90;;;;;;5089796;28;20048;-79
2023/03/03 02:59:09;;;;;;;45.72;25.05;;;2.40;99.90;;;;;;5089989;28;20048;-80
2023/03/03 03:01:38;;;;;;;47.78;24.85;;;2.40;99.90;;;;;;5087121;28;20052;-80
2023/03/03 03:04:07;;;;;;;44.28;23.63;;;2.40;99.90;;;;;;5091454;28;20044;-80
2023/03/03 03:06:33;;;;;;;48.78;23.83;;;2.40;99.90;;;;;;5088644;28;20044;-79
2023/03/03 03:08:59;;;;;;;44.35;23.42;;;2.40;99.90;;;;;;5091793;28;20055;-80
2023/03/03 03:11:25;;;;;;;48.97;22.73;;;2.40;99.90;;;;;;5090683;28;20040;-80
2023/03/03 03:13:51;;;;;;;48.47;22.63;;;2.40;99.90;;;;;;5087719;28;20036;-80
2023/03/03 03:16:17;;;;;;;55.35;23.58;;;2.40;99.90;;;;;;5087046;28;20460;-79
2023/03/03 03:18:43;;;;;;;55.47;24.80;;;2.40;99.90;;;;;;5085753;28;20032;-79
2023/03/03 03:21:11;;;;;;;55.58;25.33;;;2.30;99.90;;;;;;5086700;28;20066;-80
2023/03/03 03:23:38;;;;;;;60.75;25.98;;;2.40;99.90;;;;;;5085158;28;20040;-79
2023/03/03 03:26:04;;;;;;;59.13;26.47;;;2.40;99.90;;;;;;5085478;28;20040;-79
2023/03/03 03:28:30;;;;;;;68.72;25.98;;;2.30;99.90;;;;;;5090910;28;20396;-80
2023/03/03 03:30:56;;;;;;;63.00;26.13;;;2.30;99.90;;;;;;5088641;28;20040;-79
2023/03/03 03:33:22;;;;;;;64.03;26.25;;;2.30;99.90;;;;;;5087444;28;20055;-79
2023/03/03 03:35:48;;;;;;;74.72;28.05;;;2.30;99.90;;;;;;5085111;28;20048;-79
2023/03/03 03:38:14;;;;;;;75.22;25.95;;;2.30;99.90;;;;;;5084850;28;20089;-79
2023/03/03 03:40:40;;;;;;;88.63;27.92;;;2.30;99.90;;;;;;5084417;28;20048;-79
2023/03/03 03:43:05;;;;;;;92.95;27.90;;;2.30;99.90;;;;;;5079246;28;20273;-79
2023/03/03 03:45:31;;;;;;;66.63;24.05;;;2.30;99.90;;;;;;5085952;28;20040;-79
2023/03/03 03:47:57;;;;;;;62.47;23.25;;;2.20;99.90;;;;;;5082413;28;20525;-79
2023/03/03 03:50:22;;;;;;;67.82;25.02;;;2.20;99.90;;;;;;5088225;28;20051;-79
2023/03/03 03:52:49;;;;;;;46.83;22.13;;;2.20;99.90;;;;;;5087894;28;20032;-79
2023/03/03 03:55:14;;;;;;;43.42;20.70;;;2.20;99.90;;;;;;5087851;28;20052;-79
2023/03/03 03:57:41;;;;;;;42.03;20.88;;;2.20;99.90;;;;;;5087851;28;20036;-79
2023/03/03 04:00:10;;;;;;;35.20;19.33;;;2.20;99.90;;;;;;5087264;28;20094;-79
2023/03/03 04:02:36;;;;;;;51.67;20.63;;;2.20;99.90;;;;;;5082268;28;20063;-79
2023/03/03 04:05:02;;;;;;;59.17;21.60;;;2.20;99.90;;;;;;5086806;28;20606;-79
2023/03/03 04:07:27;;;;;;;75.13;20.48;;;2.30;99.90;;;;;;5086280;28;20146;-80
2023/03/03 04:09:53;;;;;;;51.17;21.05;;;2.20;99.90;;;;;;5081999;28;20043;-80
2023/03/03 04:12:18;;;;;;;45.45;19.35;;;2.20;99.90;;;;;;5087729;28;20076;-79
2023/03/03 04:14:44;;;;;;;61.13;23.13;;;2.20;99.90;;;;;;5087610;28;20032;-79
2023/03/03 04:17:20;;;;;;;48.65;22.17;;;2.30;99.90;;;;;;5085435;28;20047;-79
2023/03/03 04:19:46;;;;;;;75.28;22.10;;;2.30;99.90;;;;;;5084022;28;20847;-79
2023/03/03 04:22:12;;;;;;;49.95;21.85;;;2.30;99.90;;;;;;5082597;28;20048;-79
2023/03/03 04:24:41;;;;;;;48.35;21.60;;;2.30;99.90;;;;;;5089185;28;20123;-80
2023/03/03 04:27:08;;;;;;;51.85;21.02;;;2.30;99.90;;;;;;5082292;28;20491;-79
2023/03/03 04:29:34;;;;;;;52.70;21.30;;;2.30;99.90;;;;;;5084522;28;20040;-79
2023/03/03 04:32:00;;;;;;;47.70;20.92;;;2.40;99.90;;;;;;5088198;28;20388;-79
2023/03/03 04:34:26;;;;;;;44.10;20.25;;;2.40;99.90;;;;;;5085668;28;20051;-79
2023/03/03 04:36:51;;;;;;;46.58;21.63;;;2.40;99.90;;;;;;5086710;28;20068;-79
2023/03/03 04:39:17;;;;;;;135.27;26.10;;;2.40;99.90;;;;;;5085721;28;20044;-79
2023/03/03 04:41:43;;;;;;;109.82;28.00;;;2.40;99.90;;;;;;5081853;28;20056;-79
2023/03/03 04:44:09;;;;;;;154.77;26.48;;;2.40;99.90;;;;;;5081762;28;20480;-79
2023/03/03 04:46:34;;;;;;;114.65;26.70;;;2.40;99.90;;;;;;5084838;28;20028;-79
2023/03/03 04:49:00;;;;;;;72.38;25.23;;;2.40;99.90;;;;;;5077919;28;20032;-79
2023/03/03 04:51:26;;;;;;;75.60;24.83;;;2.40;99.90;;;;;;5084858;28;20044;-80
2023/03/03 04:53:51;;;;;;;84.47;25.20;;;2.40;99.90;;;;;;5091307;28;20040;-79
2023/03/03 04:56:17;;;;;;;138.95;25.55;;;2.40;99.90;;;;;;5085980;28;20376;-79
2023/03/03 04:58:43;;;;;;;124.65;25.58;;;2.40;99.90;;;;;;5087865;28;20059;-79
2023/03/03 05:01:13;;;;;;;90.20;24.27;;;2.40;99.90;;;;;;5077101;28;20070;-79
2023/03/03 05:03:39;;;;;;;95.22;22.88;;;2.30;99.90;;;;;;5088520;28;20043;-80
2023/03/03 05:06:05;;;;;;;64.95;23.13;;;2.30;99.90;;;;;;5085857;28;20055;-80
2023/03/03 05:08:30;;;;;;;85.20;23.67;;;2.40;99.90;;;;;;5088547;28;20043;-79
2023/03/03 05:10:58;;;;;;;115.20;23.00;;;2.40;99.90;;;;;;5089034;28;20044;-80
2023/03/03 05:13:25;;;;;;;76.18;22.60;;;2.40;99.90;;;;;;5085081;28;20039;-79
2023/03/03 05:15:56;;;;;;;133.25;24.58;;;2.40;99.90;;;;;;5086105;28;20040;-80
2023/03/03 05:18:23;;;;;;;121.93;24.92;;;2.40;99.90;;;;;;5082509;28;20051;-80
2023/03/03 05:20:50;;;;;;;73.53;21.98;;;2.40;99.90;;;;;;5085223;28;20483;-80
2023/03/03 05:23:17;;;;;;;106.97;22.10;;;2.40;99.90;;;;;;5082329;28;20505;-80
2023/03/03 05:25:43;;;;;;;65.00;21.67;;;2.40;99.90;;;;;;5088646;28;20048;-80
2023/03/03 05:28:09;;;;;;;48.20;21.15;;;2.40;99.90;;;;;;5087150;28;20042;-80
2023/03/03 05:30:36;;;;;;;65.28;22.88;;;2.40;99.90;;;;;;5082794;28;20079;-80
2023/03/03 05:33:02;;;;;;;78.10;21.52;;;2.40;99.90;;;;;;5082451;28;20098;-80
2023/03/03 05:35:27;;;;;;;79.82;21.05;;;2.40;99.90;;;;;;5081957;28;20048;-80
2023/03/03 05:37:53;;;;;;;47.80;18.85;;;2.40;99.90;;;;;;5085933;28;20051;-80
2023/03/03 05:40:19;;;;;;;62.63;18.15;;;2.40;99.90;;;;;;5080123;28;20065;-80
2023/03/03 05:42:45;;;;;;;100.65;18.23;;;2.40;99.90;;;;;;5085641;28;20044;-80
2023/03/03 05:45:11;;;;;;;56.45;16.60;;;2.50;99.90;;;;;;5083530;28;20093;-80
2023/03/03 05:47:37;;;;;;;73.47;17.65;;;2.40;99.90;;;;;;5086479;28;20479;-80
2023/03/03 05:50:04;;;;;;;54.67;17.20;;;2.50;99.90;;;;;;5077453;28;20075;-80
2023/03/03 05:52:29;;;;;;;59.00;16.35;;;2.50;99.90;;;;;;5086473;28;20514;-80
2023/03/03 05:54:55;;;;;;;52.03;17.02;;;2.40;99.90;;;;;;5081012;28;20044;-80
2023/03/03 05:57:21;;;;;;;64.28;15.82;;;2.50;99.90;;;;;;5083383;28;20479;-80
2023/03/03 05:59:46;;;;;;;49.05;15.68;;;2.50;99.90;;;;;;5118602;28;20193;-79
2023/03/03 06:02:12;;;;;;;50.75;16.98;;;2.50;99.90;;;;;;5085903;28;20076;-77
2023/03/03 06:04:38;;;;;;;60.15;16.63;;;2.50;99.90;;;;;;5084096;28;20075;-75
2023/03/03 06:07:04;;;;;;;39.38;15.27;;;2.50;99.90;;;;;;5082063;28;20036;-76
2023/03/03 06:09:31;;;;;;;57.53;16.35;;;2.50;99.90;;;;;;5086064;28;20032;-76
2023/03/03 06:11:57;;;;;;;66.65;16.25;;;2.50;99.90;;;;;;5085832;28;20040;-76
2023/03/03 06:14:23;;;;;;;37.75;15.50;;;2.50;99.90;;;;;;5082579;28;20051;-76
2023/03/03 06:16:49;;;;;;;30.30;14.95;;;2.40;99.90;;;;;;5085483;28;20028;-76
2023/03/03 06:19:15;;;;;;;26.50;14.25;;;2.40;99.90;;;;;;5074125;28;20053;-76
2023/03/03 06:21:41;;;;;;;39.55;16.58;;;2.40;99.90;;;;;;5082308;28;20039;-76
2023/03/03 06:24:07;;;;;;;54.45;15.25;;;2.40;99.90;;;;;;5081485;28;20044;-75
2023/03/03 06:26:33;;;;;;;39.65;15.52;;;2.40;99.90;;;;;;5086663;28;20039;-76
2023/03/03 06:28:59;;;;;;;29.90;14.45;;;2.50;99.90;;;;;;5085049;28;20048;-76
2023/03/03 06:31:26;;;;;;;28.65;14.13;;;2.50;99.90;;;;;;5078393;28;20077;-76
2023/03/03 06:33:53;;;;;;;28.45;14.43;;;2.50;99.90;;;;;;5081627;28;20119;-81
2023/03/03 06:36:19;;;;;;;22.75;13.60;;;2.40;99.90;;;;;;5086332;28;20039;-78
2023/03/03 06:38:46;;;;;;;27.67;14.17;;;2.50;99.90;;;;;;5079533;28;20051;-78
2023/03/03 06:41:12;;;;;;;22.30;13.38;;;2.50;99.90;;;;;;5081408;28;20048;-79
2023/03/03 06:43:38;;;;;;;25.35;13.68;;;2.50;99.90;;;;;;5080826;28;20036;-78
2023/03/03 06:46:04;;;;;;;23.63;13.63;;;2.50;99.90;;;;;;5080707;28;20040;-78
2023/03/03 06:48:31;;;;;;;22.92;13.52;;;2.50;99.90;;;;;;5087643;28;20040;-78
2023/03/03 06:51:08;;;;;;;25.95;14.27;;;2.60;99.90;;;;;;5084416;28;20118;-78
2023/03/03 06:53:34;;;;;;;25.10;13.33;;;2.60;99.90;;;;;;5084218;28;20051;-79
2023/03/03 06:56:00;;;;;;;25.77;13.70;;;2.60;99.90;;;;;;5086961;28;20403;-78
2023/03/03 06:58:28;;;;;;;22.70;13.07;;;2.70;99.90;;;;;;5082999;28;20633;-78
2023/03/03 07:00:59;;;;;;;24.70;13.45;;;2.70;99.90;;;;;;5080798;28;20127;-78
2023/03/03 07:03:34;;;;;;;25.58;13.30;;;2.80;99.90;;;;;;5090286;28;20067;-78
2023/03/03 07:06:05;;;;;;;26.75;13.55;;;2.70;99.90;;;;;;5086664;28;20048;-79
2023/03/03 07:08:31;;;;;;;29.13;13.95;;;2.80;99.90;;;;;;5091436;28;20040;-78
2023/03/03 07:11:05;;;;;;;24.13;14.02;;;2.80;99.90;;;;;;5086874;28;20040;-80
2023/03/03 07:13:32;;;;;;;23.50;13.57;;;2.90;99.90;;;;;;5075771;28;20040;-79
2023/03/03 07:16:00;;;;;;;;;;;2.90;99.90;;;;;;5083542;28;20052;-79
2023/03/03 07:18:51;;;;;;;27.38;13.70;;;3.00;99.90;;;;;;5083941;28;20340;-80
2023/03/03 07:21:20;;;;;;;22.80;13.70;;;3.00;99.90;;;;;;5084778;28;20048;-79
2023/03/03 07:23:49;;;;;;;21.65;11.93;;;3.00;99.90;;;;;;5090222;28;20428;-79
2023/03/03 07:26:24;;;;;;;23.60;13.18;;;3.10;99.90;;;;;;5089317;28;20059;-80
2023/03/03 07:29:14;;;;;;;24.70;12.65;;;3.10;99.90;;;;;;5087466;28;20075;-79
2023/03/03 07:31:40;;;;;;;26.42;14.02;;;3.10;99.90;;;;;;5089238;28;20031;-80
2023/03/03 07:34:41;;;;;;;22.10;12.73;;;3.20;99.90;;;;;;5084019;28;20099;-80
2023/03/03 07:37:33;;;;;;;23.55;13.15;;;3.20;99.90;;;;;;5083036;28;20058;-80
2023/03/03 07:40:00;;;;;;;23.13;12.63;;;3.20;99.90;;;;;;5083915;28;20063;-80
2023/03/03 07:42:35;;;;;;;23.85;13.30;;;3.20;99.90;;;;;;5091757;28;20055;-80
2023/03/03 07:45:03;;;;;;;24.65;13.25;;;3.30;99.90;;;;;;5082499;28;20513;-79
2023/03/03 07:47:38;;;;;;;20.90;12.23;;;3.30;99.90;;;;;;5085946;28;20044;-79
2023/03/03 07:50:18;;;;;;;24.60;12.93;;;3.40;99.90;;;;;;5086875;28;20040;-79
2023/03/03 07:52:55;;;;;;;22.95;12.52;;;3.40;99.90;;;;;;5076435;28;20164;-79
2023/03/03 07:55:21;;;;;;;;;;;3.40;99.90;;;;;;5084917;28;20040;-80
2023/03/03 07:57:49;;;;;;;26.95;13.32;;;3.50;99.90;;;;;;5080300;28;19926;-80
2023/03/03 08:00:15;;;;;;;23.85;12.50;;;3.50;99.90;;;;;;5085906;28;20056;-80
2023/03/03 08:02:54;;;;;;;24.95;13.10;;;3.50;99.90;;;;;;5081622;28;20051;-80
2023/03/03 08:05:46;;;;;;;25.85;12.05;;;3.60;99.90;;;;;;5083603;28;20044;-80
2023/03/03 08:08:32;;;;;;;21.40;11.20;;;3.60;99.90;;;;;;5088524;28;20047;-80
2023/03/03 08:10:59;;;;;;;19.10;11.48;;;3.60;99.90;;;;;;5081128;28;20123;-79
2023/03/03 08:13:31;;;;;;;;;;;3.70;99.90;;;;;;5087901;28;20051;-80
2023/03/03 08:16:24;;;;;;;20.67;11.45;;;3.70;99.90;;;;;;5086300;28;19920;-79
2023/03/03 08:18:52;;;;;;;20.48;11.55;;;3.70;99.90;;;;;;5084433;28;20036;-82
2023/03/03 08:21:21;;;;;;;22.30;12.90;;;3.80;99.90;;;;;;5084581;28;20042;-77
2023/03/03 08:23:50;;;;;;;20.80;11.32;;;3.80;99.90;;;;;;5087546;28;20123;-79
2023/03/03 08:26:26;;;;;;;21.67;12.75;;;3.90;99.90;;;;;;5078467;28;20055;-80
2023/03/03 08:28:52;;;;;;;21.95;13.30;;;3.90;99.90;;;;;;5083678;28;20133;-88
2023/03/03 08:31:18;;;;;;;20.65;12.82;;;3.90;99.90;;;;;;5080615;28;20396;-80
2023/03/03 08:33:45;;;;;;;20.25;12.77;;;4.00;99.90;;;;;;5090906;28;20552;-78
2023/03/03 08:36:11;;;;;;;20.08;13.10;;;4.00;99.90;;;;;;5089251;28;20041;-76
2023/03/03 08:38:38;;;;;;;20.45;12.95;;;4.00;99.90;;;;;;5087524;28;20115;-80
2023/03/03 08:41:04;;;;;;;19.05;12.45;;;4.10;99.90;;;;;;5096415;28;20079;-78
2023/03/03 08:43:31;;;;;;;18.35;11.40;;;4.10;99.90;;;;;;5092636;28;20044;-80
2023/03/03 08:45:58;;;;;;;21.77;12.90;;;4.10;99.90;;;;;;5095923;28;20067;-81
2023/03/03 08:48:25;;;;;;;19.05;11.85;;;4.10;99.90;;;;;;5089454;28;20068;-79
2023/03/03 08:50:50;;;;;;;18.52;12.65;;;4.20;99.90;;;;;;5095429;28;20090;-80
2023/03/03 08:53:17;;;;;;;17.33;11.73;;;4.20;99.90;;;;;;5095174;28;20036;-77
2023/03/03 08:55:44;;;;;;;17.40;12.13;;;4.30;99.90;;;;;;5097645;28;20423;-79
2023/03/03 08:58:10;;;;;;;20.48;12.55;;;4.40;99.90;;;;;;5087371;28;20048;-80
2023/03/03 09:00:37;;;;;;;17.08;12.15;;;4.40;99.90;;;;;;5088750;28;20048;-78
2023/03/03 09:03:05;;;;;;;17.80;11.82;;;4.50;99.90;;;;;;5090831;28;20432;-84
2023/03/03 09:05:33;;;;;;;21.83;12.95;;;4.50;99.90;;;;;;5080790;28;20040;-82
2023/03/03 09:08:00;;;;;;;16.80;11.27;;;4.50;99.90;;;;;;5085542;28;20094;-79
2023/03/03 09:10:28;;;;;;;18.52;12.27;;;4.60;99.90;;;;;;5092920;28;20465;-80
2023/03/03 09:12:57;;;;;;;18.10;11.80;;;4.60;99.90;;;;;;5085826;28;20044;-80
2023/03/03 09:15:27;;;;;;;19.98;12.20;;;4.70;99.90;;;;;;5071171;28;20529;-85
2023/03/03 09:17:57;;;;;;;16.48;11.43;;;4.80;99.90;;;;;;5074960;28;20494;-82
2023/03/03 09:20:38;;;;;;;16.88;11.27;;;4.90;99.90;;;;;;5088884;28;20044;-83
2023/03/03 09:23:22;;;;;;;22.02;12.20;;;5.00;99.90;;;;;;5086723;28;20133;-82
2023/03/03 09:25:48;;;;;;;16.50;11.77;;;5.10;99.90;;;;;;5090081;28;20036;-87
2023/03/03 09:28:26;;;;;;;17.70;11.10;;;5.20;99.90;;;;;;5087699;28;20406;-92
2023/03/03 09:30:55;;;;;;;16.48;11.05;;;5.30;99.90;;;;;;5090570;28;20383;-90
2023/03/03 09:33:41;;;;;;;20.45;12.55;;;5.40;99.90;;;;;;5087255;28;20044;-90
2023/03/03 09:36:24;;;;;;;20.58;14.00;;;5.50;99.90;;;;;;5078453;28;20040;-92
2023/03/03 09:38:51;;;;;;;19.02;11.15;;;5.70;99.90;;;;;;5090489;28;20048;-87
2023/03/03 09:41:54;;;;;;;15.57;10.52;;;5.80;99.90;;;;;;5089551;28;20056;-85
2023/03/03 09:44:51;;;;;;;15.80;9.65;;;5.80;99.90;;;;;;5086928;28;20529;-84
2023/03/03 09:47:28;;;;;;;12.30;7.93;;;5.80;99.90;;;;;;5086810;28;20103;-86
2023/03/03 09:50:30;;;;;;;11.35;8.55;;;5.90;99.90;;;;;;5090313;28;20059;-83
2023/03/03 09:53:31;;;;;;;18.35;12.18;;;6.00;99.90;;;;;;5082434;28;20036;-85
2023/03/03 09:56:06;;;;;;;15.70;11.32;;;6.10;99.90;;;;;;5090751;28;20043;-88
2023/03/03 09:58:47;;;;;;;18.02;10.38;;;6.20;99.90;;;;;;5090465;28;20052;-87
2023/03/03 10:01:40;;;;;;;15.93;10.82;;;6.20;99.90;;;;;;5088050;28;20124;-84
2023/03/03 10:04:14;;;;;;;18.40;10.43;;;6.20;99.90;;;;;;5082586;28;20048;-82
2023/03/03 10:06:47;;;;;;;18.10;9.30;;;6.10;99.90;;;;;;5087908;28;20044;-83
2023/03/03 10:09:45;;;;;;;13.27;8.85;;;6.00;99.90;;;;;;5084751;28;20050;-79
2023/03/03 10:12:41;;;;;;;13.32;8.50;;;6.00;99.90;;;;;;5079527;28;20499;-85
2023/03/03 10:15:32;;;;;;;13.13;7.75;;;6.00;99.90;;;;;;5090392;28;20492;-81
2023/03/03 10:18:19;;;;;;;12.88;7.57;;;5.90;99.90;;;;;;5085814;28;20464;-82
2023/03/03 10:20:59;;;;;;;11.90;7.33;;;5.90;99.90;;;;;;5089202;28;20052;-87
2023/03/03 10:23:34;;;;;;;12.57;7.85;;;6.00;99.90;;;;;;5070304;28;20045;-80
2023/03/03 10:26:06;;;;;;;12.35;8.00;;;6.10;99.90;;;;;;5086775;28;20036;-88
2023/03/03 10:28:56;;;;;;;12.35;6.80;;;6.20;99.90;;;;;;5087391;28;20032;-84
2023/03/03 10:31:45;;;;;;;10.80;6.47;;;6.20;99.90;;;;;;5086629;28;20044;-87
2023/03/03 10:34:46;;;;;;;9.85;7.13;;;6.30;99.90;;;;;;5086550;28;20502;-86
2023/03/03 10:37:30;;;;;;;12.00;6.82;;;6.40;99.90;;;;;;5058665;28;20056;-76
2023/03/03 10:40:20;;;;;;;11.45;7.22;;;6.50;99.90;;;;;;5091642;28;20538;-81
2023/03/03 10:42:58;;;;;;;12.82;7.65;;;6.60;99.90;;;;;;5083568;28;20051;-76
2023/03/03 10:45:59;;;;;;;11.80;7.18;;;6.60;99.90;;;;;;5089525;28;20097;-79
2023/03/03 10:48:52;;;;;;;19.10;6.68;;;6.60;99.90;;;;;;5014317;28;20076;-78
2023/03/03 10:51:51;;;;;;;13.63;6.47;;;6.60;99.90;;;;;;5081816;28;20407;-84
2023/03/03 10:54:31;;;;;;;13.63;6.72;;;6.60;99.90;;;;;;5116893;27;20048;-82
2023/03/03 10:57:18;;;;;;;11.82;7.00;;;6.60;99.90;;;;;;5091337;28;20383;-84
2023/03/03 11:00:01;;;;;;;11.05;6.80;;;6.60;99.90;;;;;;5085448;28;20040;-83
2023/03/03 11:02:32;;;;;;;9.43;6.22;;;6.50;99.90;;;;;;5076264;28;20134;-88
2023/03/03 11:05:23;;;;;;;12.38;6.43;;;6.50;99.90;;;;;;5074598;28;20452;-82
2023/03/03 11:08:15;;;;;;;12.13;6.38;;;6.50;99.90;;;;;;5091418;28;20047;-85
2023/03/03 11:11:07;;;;;;;10.93;6.63;;;6.50;99.90;;;;;;5089237;28;20063;-87
2023/03/03 11:14:14;;;;;;;11.43;6.15;;;6.50;99.90;;;;;;5077956;28;20059;-79
2023/03/03 11:17:09;;;;;;;16.45;7.80;;;6.40;99.90;;;;;;5082476;28;20052;-81
2023/03/03 11:19:58;;;;;;;14.68;8.23;;;6.50;99.90;;;;;;5084640;28;20044;-80
2023/03/03 11:22:52;;;;;;;17.88;8.85;;;6.40;99.90;;;;;;5088458;28;20048;-78
2023/03/03 11:25:33;;;;;;;15.57;7.50;;;6.40;99.90;;;;;;5081715;28;20040;-76
2023/03/03 11:28:05;;;;;;;12.57;7.50;;;6.40;99.90;;;;;;5092249;28;20126;-83
2023/03/03 11:30:55;;;;;;;14.63;6.38;;;6.40;99.90;;;;;;5084343;28;20464;-79
2023/03/03 11:33:25;;;;;;;11.82;6.47;;;6.40;99.90;;;;;;5087811;28;20388;-78
2023/03/03 11:36:22;;;;;;;12.32;6.75;;;6.40;99.90;;;;;;5079802;28;20059;-84
2023/03/03 11:38:48;;;;;;;;;;;6.50;99.90;;;;;;5089582;28;20119;-78
2023/03/03 11:41:30;;;;;;;12.13;6.03;;;6.40;99.90;;;;;;5083271;28;20359;-78
2023/03/03 11:44:27;;;;;;;16.80;8.95;;;6.50;99.90;;;;;;5081957;28;20058;-79
2023/03/03 11:47:02;;;;;;;12.30;7.38;;;6.50;99.90;;;;;;5079018;28;20051;-81
2023/03/03 11:50:04;;;;;;;12.48;7.97;;;6.50;99.90;;;;;;5089345;28;20384;-80
2023/03/03 11:52:40;;;;;;;14.80;7.85;;;6.50;99.90;;;;;;5082122;28;20064;-80
2023/03/03 11:55:14;;;;;;;11.13;7.10;;;6.50;99.90;;;;;;5080604;28;20091;-83
2023/03/03 11:57:44;;;;;;;13.25;8.23;;;6.50;99.90;;;;;;5087491;28;20050;-85
2023/03/03 12:00:43;;;;;;;13.50;8.32;;;6.60;99.90;;;;;;5084175;28;20546;-80
2023/03/03 12:03:27;;;;;;;13.20;8.57;;;6.60;99.90;;;;;;5089505;28;20052;-87
2023/03/03 12:06:08;;;;;;;12.15;7.57;;;6.60;99.90;;;;;;5086911;28;20383;-76
2023/03/03 12:08:52;;;;;;;13.18;7.68;;;6.70;99.90;;;;;;5084849;28;20462;-80
2023/03/03 12:11:21;;;;;;;28.27;16.15;;;6.60;99.90;;;;;;5087690;28;20040;-80
2023/03/03 12:14:06;;;;;;;16.42;10.63;;;6.80;99.90;;;;;;5078485;28;20715;-80
2023/03/03 12:16:41;;;;;;;11.40;6.15;;;6.80;99.90;;;;;;5086348;28;20487;-82
2023/03/03 12:19:31;;;;;;;11.25;8.15;;;6.80;99.90;;;;;;5089981;28;20040;-80
2023/03/03 12:22:29;;;;;;;10.40;7.65;;;6.80;99.90;;;;;;5088693;28;20044;-77
2023/03/03 12:25:14;;;;;;;9.95;6.60;;;6.90;99.90;;;;;;5069330;28;20078;-76
2023/03/03 12:27:55;;;;;;;8.57;5.55;;;6.90;99.90;;;;;;5100909;28;20123;-77
2023/03/03 12:30:38;;;;;;;10.73;6.70;;;7.00;99.90;;;;;;5089287;28;20044;-81
2023/03/03 12:33:36;;;;;;;11.15;6.32;;;7.00;99.90;;;;;;5082261;28;20059;-76
2023/03/03 12:36:46;;;;;;;10.73;7.00;;;7.00;99.90;;;;;;5084477;28;20466;-74
2023/03/03 12:39:38;;;;;;;11.63;6.47;;;7.00;99.90;;;;;;5054354;28;20395;-85
2023/03/03 12:42:28;;;;;;;11.65;6.38;;;6.90;99.90;;;;;;5081929;28;20048;-83
2023/03/03 12:45:17;;;;;;;12.30;6.22;;;7.00;99.90;;;;;;5081709;28;20068;-79
2023/03/03 12:47:55;;;;;;;12.85;6.22;;;7.00;99.90;;;;;;5079734;28;20092;-81
2023/03/03 12:50:43;;;;;;;8.88;5.30;;;7.00;99.90;;;;;;5086566;28;20074;-84
2023/03/03 12:53:40;;;;;;;11.25;5.32;;;7.00;99.90;;;;;;5078552;28;20123;-76
2023/03/03 12:56:14;;;;;;;10.40;5.90;;;7.10;99.90;;;;;;5084086;28;20039;-82
2023/03/03 12:59:12;;;;;;;9.82;5.93;;;7.10;99.90;;;;;;5112468;27;20054;-77
2023/03/03 13:02:16;;;;;;;12.15;5.80;;;7.10;99.90;;;;;;5081365;28;20056;-83
2023/03/03 13:04:41;;;;;;;9.00;4.80;;;7.10;99.90;;;;;;5086921;28;20104;-85
2023/03/03 13:07:20;;;;;;;8.43;3.13;;;7.00;99.90;;;;;;5093403;28;20040;-89
2023/03/03 13:09:48;;;;;;;5.43;1.90;;;7.10;99.90;;;;;;5083734;28;20490;-81
2023/03/03 13:12:33;;;;;;;3.13;1.70;;;7.10;99.90;;;;;;5115986;27;20390;-81